sensor_id;sensor_type;location;lat;lon;timestamp;temperature;humidity
18998;DHT22;9632;51.018;4.284;2023-03-03T00:00:45;5.10;99.90
18998;DHT22;9632;51.018;4.284;2023-03-03T00:03:14;5.10;99.90
18998;DHT22;9632;51.018;4.284;2023-03-03T00:05:41;5.00;99.90
18998;DHT22;9632;51.018;4.284;2023-03-03T00:08:07;5.00;99.90
18998;DHT22;9632;51.018;4.284;2023-03-03T00:10:33;5.10;99.90
18998;DHT22;9632;51.018;4.284;2023-03-03T00:12:59;5.00;99.90
18998;DHT22;9632;51.018;4.284;2023-03-03T00:15:25;4.90;99.90
18998;DHT22;9632;51.018;4.284;2023-03-03T00:17:52;4.90;99.90
18998;DHT22;9632;51.018;4.284;2023-03-03T00:20:38;4.90;99.90
18998;DHT22;9632;51.018;4.284;2023-03-03T00:23:22;4.90;99.90
18998;DHT22;9632;51.018;4.284;2023-03-03T00:25:50;4.90;99.90
18998;DHT22;9632;51.018;4.284;2023-03-03T00:28:56;5.00;99.90
18998;DHT22;9632;51.018;4.284;2023-03-03T00:31:34;4.90;99.90
18998;DHT22;9632;51.018;4.284;2023-03-03T00:36:48;4.80;99.90
18998;DHT22;9632;51.018;4.284;2023-03-03T00:39:26;4.70;99.90
18998;DHT22;9632;51.018;4.284;2023-03-03T00:41:54;4.70;99.90
18998;DHT22;9632;51.018;4.284;2023-03-03T00:44:47;4.60;99.90
18998;DHT22;9632;51.018;4.284;2023-03-03T00:53:11;4.70;99.90
18998;DHT22;9632;51.018;4.284;2023-03-03T00:55:36;4.70;99.90
18998;DHT22;9632;51.018;4.284;2023-03-03T00:58:03;4.70;99.90
18998;DHT22;9632;51.018;4.284;2023-03-03T01:00:28;4.80;99.90
18998;DHT22;9632;51.018;4.284;2023-03-03T01:02:54;4.70;99.90
18998;DHT22;9632;51.018;4.284;2023-03-03T01:05:20;4.70;99.90
18998;DHT22;9632;51.018;4.284;2023-03-03T01:07:46;4.60;99.90
18998;DHT22;9632;51.018;4.284;2023-03-03T01:10:12;4.70;99.90
18998;DHT22;9632;51.018;4.284;2023-03-03T01:12:38;4.70;99.90
18998;DHT22;9632;51.018;4.284;2023-03-03T01:15:09;4.70;99.90
18998;DHT22;9632;51.018;4.284;2023-03-03T01:17:35;4.70;99.90
18998;DHT22;9632;51.018;4.284;2023-03-03T01:20:02;4.50;99.90
18998;DHT22;9632;51.018;4.284;2023-03-03T01:22:28;4.50;99.90
18998;DHT22;9632;51.018;4.284;2023-03-03T01:24:53;4.60;99.90
18998;DHT22;9632;51.018;4.284;2023-03-03T01:27:19;4.60;99.90
18998;DHT22;9632;51.018;4.284;2023-03-03T01:29:45;4.60;99.90
18998;DHT22;9632;51.018;4.284;2023-03-03T01:32:10;4.60;99.90
18998;DHT22;9632;51.018;4.284;2023-03-03T01:34:36;4.70;99.90
18998;DHT22;9632;51.018;4.284;2023-03-03T01:37:01;4.60;99.90
18998;DHT22;9632;51.018;4.284;2023-03-03T01:39:27;4.60;99.90
18998;DHT22;9632;51.018;4.284;2023-03-03T01:41:53;4.50;99.90
18998;DHT22;9632;51.018;4.284;2023-03-03T01:44:18;4.50;99.90
18998;DHT22;9632;51.018;4.284;2023-03-03T01:52:24;4.50;99.90
18998;DHT22;9632;51.018;4.284;2023-03-03T01:54:57;4.50;99.90
18998;DHT22;9632;51.018;4.284;2023-03-03T01:57:32;4.60;99.90
18998;DHT22;9632;51.018;4.284;2023-03-03T02:00:02;4.50;99.90
18998;DHT22;9632;51.018;4.284;2023-03-03T02:02:28;4.50;99.90
18998;DHT22;9632;51.018;4.284;2023-03-03T02:04:55;4.50;99.90
18998;DHT22;9632;51.018;4.284;2023-03-03T02:07:21;4.40;99.90
18998;DHT22;9632;51.018;4.284;2023-03-03T02:10:16;4.40;99.90
18998;DHT22;9632;51.018;4.284;2023-03-03T02:12:49;4.40;99.90
18998;DHT22;9632;51.018;4.284;2023-03-03T02:15:29;4.40;99.90
18998;DHT22;9632;51.018;4.284;2023-03-03T02:21:00;4.30;99.90
18998;DHT22;9632;51.018;4.284;2023-03-03T02:26:20;4.30;99.90
18998;DHT22;9632;51.018;4.284;2023-03-03T02:28:47;4.30;99.90
18998;DHT22;9632;51.018;4.284;2023-03-03T02:31:16;4.30;99.90
18998;DHT22;9632;51.018;4.284;2023-03-03T02:33:44;4.30;99.90
18998;DHT22;9632;51.018;4.284;2023-03-03T02:36:24;4.20;99.90
18998;DHT22;9632;51.018;4.284;2023-03-03T02:44:29;4.20;99.90
18998;DHT22;9632;51.018;4.284;2023-03-03T02:46:57;4.20;99.90
18998;DHT22;9632;51.018;4.284;2023-03-03T02:49:28;4.20;99.90
18998;DHT22;9632;51.018;4.284;2023-03-03T02:51:55;4.20;99.90
18998;DHT22;9632;51.018;4.284;2023-03-03T02:54:24;4.20;99.90
18998;DHT22;9632;51.018;4.284;2023-03-03T02:56:50;4.10;99.90
18998;DHT22;9632;51.018;4.284;2023-03-03T02:59:16;4.10;99.90
18998;DHT22;9632;51.018;4.284;2023-03-03T03:01:42;4.00;99.90
18998;DHT22;9632;51.018;4.284;2023-03-03T03:04:13;4.00;99.90
18998;DHT22;9632;51.018;4.284;2023-03-03T03:06:40;4.00;99.90
18998;DHT22;9632;51.018;4.284;2023-03-03T03:09:07;4.00;99.90
18998;DHT22;9632;51.018;4.284;2023-03-03T03:11:34;4.00;99.90
18998;DHT22;9632;51.018;4.284;2023-03-03T03:14:00;3.90;99.90
18998;DHT22;9632;51.018;4.284;2023-03-03T03:16:26;3.90;99.90
18998;DHT22;9632;51.018;4.284;2023-03-03T03:18:52;3.90;99.90
18998;DHT22;9632;51.018;4.284;2023-03-03T03:21:17;3.90;99.90
18998;DHT22;9632;51.018;4.284;2023-03-03T03:23:43;3.90;99.90
18998;DHT22;9632;51.018;4.284;2023-03-03T03:26:09;3.80;99.90
18998;DHT22;9632;51.018;4.284;2023-03-03T03:28:36;3.80;99.90
18998;DHT22;9632;51.018;4.284;2023-03-03T03:31:03;3.80;99.90
18998;DHT22;9632;51.018;4.284;2023-03-03T03:33:29;3.80;99.90
18998;DHT22;9632;51.018;4.284;2023-03-03T03:35:56;3.80;99.90
18998;DHT22;9632;51.018;4.284;2023-03-03T03:38:22;3.80;99.90
18998;DHT22;9632;51.018;4.284;2023-03-03T03:40:48;3.70;99.90
18998;DHT22;9632;51.018;4.284;2023-03-03T03:43:14;3.70;99.90
18998;DHT22;9632;51.018;4.284;2023-03-03T03:45:43;3.70;99.90
18998;DHT22;9632;51.018;4.284;2023-03-03T03:48:09;3.60;99.90
18998;DHT22;9632;51.018;4.284;2023-03-03T03:50:35;3.60;99.90
18998;DHT22;9632;51.018;4.284;2023-03-03T03:53:01;3.60;99.90
18998;DHT22;9632;51.018;4.284;2023-03-03T03:55:27;3.60;99.90
18998;DHT22;9632;51.018;4.284;2023-03-03T03:57:54;3.60;99.90
18998;DHT22;9632;51.018;4.284;2023-03-03T04:00:20;3.60;99.90
18998;DHT22;9632;51.018;4.284;2023-03-03T04:02:45;3.60;99.90
18998;DHT22;9632;51.018;4.284;2023-03-03T04:05:11;3.60;99.90
18998;DHT22;9632;51.018;4.284;2023-03-03T04:07:36;3.50;99.90
18998;DHT22;9632;51.018;4.284;2023-03-03T04:10:03;3.50;99.90
18998;DHT22;9632;51.018;4.284;2023-03-03T04:12:28;3.50;99.90
18998;DHT22;9632;51.018;4.284;2023-03-03T04:14:54;3.50;99.90
18998;DHT22;9632;51.018;4.284;2023-03-03T04:17:21;3.50;99.90
18998;DHT22;9632;51.018;4.284;2023-03-03T04:19:51;3.50;99.90
18998;DHT22;9632;51.018;4.284;2023-03-03T04:22:17;3.60;99.90
18998;DHT22;9632;51.018;4.284;2023-03-03T04:24:43;3.60;99.90
18998;DHT22;9632;51.018;4.284;2023-03-03T04:27:08;3.60;99.90
18998;DHT22;9632;51.018;4.284;2023-03-03T04:29:34;3.60;99.90
18998;DHT22;9632;51.018;4.284;2023-03-03T04:32:00;3.60;99.90
18998;DHT22;9632;51.018;4.284;2023-03-03T04:34:26;3.60;99.90
18998;DHT22;9632;51.018;4.284;2023-03-03T04:36:52;3.60;99.90
18998;DHT22;9632;51.018;4.284;2023-03-03T04:39:17;3.60;99.90
18998;DHT22;9632;51.018;4.284;2023-03-03T04:41:43;3.60;99.90
18998;DHT22;9632;51.018;4.284;2023-03-03T04:44:08;3.70;99.90
18998;DHT22;9632;51.018;4.284;2023-03-03T04:46:34;3.70;99.90
18998;DHT22;9632;51.018;4.284;2023-03-03T04:49:00;3.70;99.90
18998;DHT22;9632;51.018;4.284;2023-03-03T04:51:25;3.70;99.90
18998;DHT22;9632;51.018;4.284;2023-03-03T04:53:51;3.50;99.90
18998;DHT22;9632;51.018;4.284;2023-03-03T04:56:17;3.50;99.90
18998;DHT22;9632;51.018;4.284;2023-03-03T04:58:42;3.40;99.90
18998;DHT22;9632;51.018;4.284;2023-03-03T05:01:13;3.40;99.90
18998;DHT22;9632;51.018;4.284;2023-03-03T05:03:42;3.30;99.90
18998;DHT22;9632;51.018;4.284;2023-03-03T05:06:09;3.30;99.90
18998;DHT22;9632;51.018;4.284;2023-03-03T05:08:34;3.20;99.90
18998;DHT22;9632;51.018;4.284;2023-03-03T05:11:00;3.20;99.90
18998;DHT22;9632;51.018;4.284;2023-03-03T05:13:27;3.30;99.90
18998;DHT22;9632;51.018;4.284;2023-03-03T05:15:54;3.10;99.90
18998;DHT22;9632;51.018;4.284;2023-03-03T05:18:20;3.10;99.90
18998;DHT22;9632;51.018;4.284;2023-03-03T05:20:46;3.00;99.90
18998;DHT22;9632;51.018;4.284;2023-03-03T05:23:12;3.10;99.90
18998;DHT22;9632;51.018;4.284;2023-03-03T05:25:39;3.00;99.90
18998;DHT22;9632;51.018;4.284;2023-03-03T05:28:06;3.00;99.90
18998;DHT22;9632;51.018;4.284;2023-03-03T05:30:31;3.00;99.90
18998;DHT22;9632;51.018;4.284;2023-03-03T05:32:57;3.10;99.90
18998;DHT22;9632;51.018;4.284;2023-03-03T05:35:24;3.10;99.90
18998;DHT22;9632;51.018;4.284;2023-03-03T05:37:50;3.00;99.90
18998;DHT22;9632;51.018;4.284;2023-03-03T05:40:17;2.90;99.90
18998;DHT22;9632;51.018;4.284;2023-03-03T05:42:43;2.90;99.90
18998;DHT22;9632;51.018;4.284;2023-03-03T05:45:09;2.90;99.90
18998;DHT22;9632;51.018;4.284;2023-03-03T05:47:35;2.90;99.90
18998;DHT22;9632;51.018;4.284;2023-03-03T05:50:01;3.00;99.90
18998;DHT22;9632;51.018;4.284;2023-03-03T05:52:26;3.00;99.90
18998;DHT22;9632;51.018;4.284;2023-03-03T05:54:52;3.00;99.90
18998;DHT22;9632;51.018;4.284;2023-03-03T05:57:18;3.10;99.90
18998;DHT22;9632;51.018;4.284;2023-03-03T05:59:43;3.10;99.90
18998;DHT22;9632;51.018;4.284;2023-03-03T06:02:09;3.00;99.90
18998;DHT22;9632;51.018;4.284;2023-03-03T06:04:35;3.00;99.90
18998;DHT22;9632;51.018;4.284;2023-03-03T06:07:00;3.00;99.90
18998;DHT22;9632;51.018;4.284;2023-03-03T06:09:26;3.00;99.90
18998;DHT22;9632;51.018;4.284;2023-03-03T06:11:52;3.10;99.90
18998;DHT22;9632;51.018;4.284;2023-03-03T06:14:19;3.10;99.90
18998;DHT22;9632;51.018;4.284;2023-03-03T06:16:46;3.10;99.90
18998;DHT22;9632;51.018;4.284;2023-03-03T06:19:11;3.10;99.90
18998;DHT22;9632;51.018;4.284;2023-03-03T06:21:37;3.10;99.90
18998;DHT22;9632;51.018;4.284;2023-03-03T06:24:03;3.00;99.90
18998;DHT22;9632;51.018;4.284;2023-03-03T06:26:30;2.90;99.90
18998;DHT22;9632;51.018;4.284;2023-03-03T06:28:56;2.90;99.90
18998;DHT22;9632;51.018;4.284;2023-03-03T06:31:22;2.90;99.90
18998;DHT22;9632;51.018;4.284;2023-03-03T06:33:47;3.00;99.90
18998;DHT22;9632;51.018;4.284;2023-03-03T06:36:13;3.00;99.90
18998;DHT22;9632;51.018;4.284;2023-03-03T06:38:38;3.00;99.90
18998;DHT22;9632;51.018;4.284;2023-03-03T06:41:04;3.00;99.90
18998;DHT22;9632;51.018;4.284;2023-03-03T06:43:33;3.00;99.90
18998;DHT22;9632;51.018;4.284;2023-03-03T06:45:58;3.00;99.90
18998;DHT22;9632;51.018;4.284;2023-03-03T06:48:24;3.10;99.90
18998;DHT22;9632;51.018;4.284;2023-03-03T06:50:50;3.20;99.90
18998;DHT22;9632;51.018;4.284;2023-03-03T06:53:17;3.30;99.90
18998;DHT22;9632;51.018;4.284;2023-03-03T06:55:43;3.40;99.90
18998;DHT22;9632;51.018;4.284;2023-03-03T06:58:17;3.40;99.90
18998;DHT22;9632;51.018;4.284;2023-03-03T07:00:48;3.50;99.90
18998;DHT22;9632;51.018;4.284;2023-03-03T07:03:20;3.40;99.90
18998;DHT22;9632;51.018;4.284;2023-03-03T07:05:47;3.50;99.90
18998;DHT22;9632;51.018;4.284;2023-03-03T07:08:19;3.50;99.90
18998;DHT22;9632;51.018;4.284;2023-03-03T07:10:47;3.60;99.90
18998;DHT22;9632;51.018;4.284;2023-03-03T07:15:51;3.60;99.90
18998;DHT22;9632;51.018;4.284;2023-03-03T07:18:38;3.60;99.90
18998;DHT22;9632;51.018;4.284;2023-03-03T07:21:30;3.60;99.90
18998;DHT22;9632;51.018;4.284;2023-03-03T07:23:57;3.50;99.90
18998;DHT22;9632;51.018;4.284;2023-03-03T07:29:25;3.50;99.90
18998;DHT22;9632;51.018;4.284;2023-03-03T07:31:53;3.50;99.90
18998;DHT22;9632;51.018;4.284;2023-03-03T07:34:20;3.50;99.90
18998;DHT22;9632;51.018;4.284;2023-03-03T07:36:57;3.40;99.90
18998;DHT22;9632;51.018;4.284;2023-03-03T07:39:37;3.50;99.90
18998;DHT22;9632;51.018;4.284;2023-03-03T07:44:41;3.30;99.90
18998;DHT22;9632;51.018;4.284;2023-03-03T07:47:28;3.30;99.90
18998;DHT22;9632;51.018;4.284;2023-03-03T07:49:57;3.20;99.90
18998;DHT22;9632;51.018;4.284;2023-03-03T07:54:50;3.10;99.90
18998;DHT22;9632;51.018;4.284;2023-03-03T07:57:35;3.10;99.90
18998;DHT22;9632;51.018;4.284;2023-03-03T08:02:43;3.20;99.90
18998;DHT22;9632;51.018;4.284;2023-03-03T08:05:23;3.10;99.90
18998;DHT22;9632;51.018;4.284;2023-03-03T08:07:51;3.10;99.90
18998;DHT22;9632;51.018;4.284;2023-03-03T08:13:18;3.20;99.90
18998;DHT22;9632;51.018;4.284;2023-03-03T08:15:45;3.20;99.90
18998;DHT22;9632;51.018;4.284;2023-03-03T08:18:20;3.30;99.90
18998;DHT22;9632;51.018;4.284;2023-03-03T08:20:48;3.30;99.90
18998;DHT22;9632;51.018;4.284;2023-03-03T08:23:16;3.40;99.90
18998;DHT22;9632;51.018;4.284;2023-03-03T08:25:43;3.50;99.90
18998;DHT22;9632;51.018;4.284;2023-03-03T08:28:09;3.50;99.90
18998;DHT22;9632;51.018;4.284;2023-03-03T08:30:35;3.60;99.90
18998;DHT22;9632;51.018;4.284;2023-03-03T08:33:01;3.50;99.90
18998;DHT22;9632;51.018;4.284;2023-03-03T08:35:27;3.50;99.90
18998;DHT22;9632;51.018;4.284;2023-03-03T08:37:53;3.50;99.90
18998;DHT22;9632;51.018;4.284;2023-03-03T08:40:18;3.50;99.90
18998;DHT22;9632;51.018;4.284;2023-03-03T08:42:44;3.50;99.90
18998;DHT22;9632;51.018;4.284;2023-03-03T08:45:10;3.50;99.90
18998;DHT22;9632;51.018;4.284;2023-03-03T08:47:35;3.60;99.90
18998;DHT22;9632;51.018;4.284;2023-03-03T08:50:01;3.60;99.90
18998;DHT22;9632;51.018;4.284;2023-03-03T08:52:27;3.70;99.90
18998;DHT22;9632;51.018;4.284;2023-03-03T08:54:52;3.80;99.90
18998;DHT22;9632;51.018;4.284;2023-03-03T08:57:18;3.90;99.90
18998;DHT22;9632;51.018;4.284;2023-03-03T08:59:44;3.90;99.90
18998;DHT22;9632;51.018;4.284;2023-03-03T09:02:12;3.90;99.90
18998;DHT22;9632;51.018;4.284;2023-03-03T09:04:37;3.80;99.90
18998;DHT22;9632;51.018;4.284;2023-03-03T09:07:03;3.80;99.90
18998;DHT22;9632;51.018;4.284;2023-03-03T09:09:28;3.80;99.90
18998;DHT22;9632;51.018;4.284;2023-03-03T09:12:00;3.80;99.90
18998;DHT22;9632;51.018;4.284;2023-03-03T09:14:28;3.80;99.90
18998;DHT22;9632;51.018;4.284;2023-03-03T09:16:55;3.80;99.90
18998;DHT22;9632;51.018;4.284;2023-03-03T09:19:30;3.80;99.90
18998;DHT22;9632;51.018;4.284;2023-03-03T09:22:02;3.80;99.90
18998;DHT22;9632;51.018;4.284;2023-03-03T09:24:36;3.70;99.90
18998;DHT22;9632;51.018;4.284;2023-03-03T09:27:01;3.80;99.90
18998;DHT22;9632;51.018;4.284;2023-03-03T09:29:36;3.80;99.90
18998;DHT22;9632;51.018;4.284;2023-03-03T09:32:30;3.80;99.90
18998;DHT22;9632;51.018;4.284;2023-03-03T09:34:58;3.90;99.90
18998;DHT22;9632;51.018;4.284;2023-03-03T09:37:35;4.00;99.90
18998;DHT22;9632;51.018;4.284;2023-03-03T09:40:49;4.00;99.90
18998;DHT22;9632;51.018;4.284;2023-03-03T09:43:08;4.10;99.90
18998;DHT22;9632;51.018;4.284;2023-03-03T09:45:51;4.10;99.90
18998;DHT22;9632;51.018;4.284;2023-03-03T09:48:32;4.20;99.90
18998;DHT22;9632;51.018;4.284;2023-03-03T09:56:08;4.40;99.90
18998;DHT22;9632;51.018;4.284;2023-03-03T09:58:47;4.50;99.90
18998;DHT22;9632;51.018;4.284;2023-03-03T10:01:47;4.50;99.90
18998;DHT22;9632;51.018;4.284;2023-03-03T10:07:25;4.80;99.90
18998;DHT22;9632;51.018;4.284;2023-03-03T10:12:58;4.80;99.90
18998;DHT22;9632;51.018;4.284;2023-03-03T10:18:39;4.90;99.90
18998;DHT22;9632;51.018;4.284;2023-03-03T10:24:03;5.00;99.90
18998;DHT22;9632;51.018;4.284;2023-03-03T10:29:45;5.10;99.90
18998;DHT22;9632;51.018;4.284;2023-03-03T10:32:25;5.20;99.90
18998;DHT22;9632;51.018;4.284;2023-03-03T10:38:27;5.40;99.90
18998;DHT22;9632;51.018;4.284;2023-03-03T10:46:37;5.40;99.90
18998;DHT22;9632;51.018;4.284;2023-03-03T11:00:42;5.50;99.90
18998;DHT22;9632;51.018;4.284;2023-03-03T11:08:45;5.60;99.90
18998;DHT22;9632;51.018;4.284;2023-03-03T11:14:02;5.70;99.90
18998;DHT22;9632;51.018;4.284;2023-03-03T11:16:47;5.80;99.90
18998;DHT22;9632;51.018;4.284;2023-03-03T11:22:44;5.90;99.90
18998;DHT22;9632;51.018;4.284;2023-03-03T11:28:13;6.00;99.90
18998;DHT22;9632;51.018;4.284;2023-03-03T11:36:31;6.10;99.90
18998;DHT22;9632;51.018;4.284;2023-03-03T11:39:02;6.20;99.90
18998;DHT22;9632;51.018;4.284;2023-03-03T11:44:08;6.30;99.90
18998;DHT22;9632;51.018;4.284;2023-03-03T11:46:55;6.40;99.90
18998;DHT22;9632;51.018;4.284;2023-03-03T11:49:49;6.50;99.90
18998;DHT22;9632;51.018;4.284;2023-03-03T11:52:54;6.70;99.90
18998;DHT22;9632;51.018;4.284;2023-03-03T11:55:36;6.90;99.90
18998;DHT22;9632;51.018;4.284;2023-03-03T11:58:12;7.00;99.90
18998;DHT22;9632;51.018;4.284;2023-03-03T12:00:53;7.00;99.90
18998;DHT22;9632;51.018;4.284;2023-03-03T12:09:17;7.20;99.90
18998;DHT22;9632;51.018;4.284;2023-03-03T12:11:54;7.40;99.90
18998;DHT22;9632;51.018;4.284;2023-03-03T12:17:29;7.30;99.90
18998;DHT22;9632;51.018;4.284;2023-03-03T12:20:14;7.20;99.90
18998;DHT22;9632;51.018;4.284;2023-03-03T12:25:32;7.10;99.90
18998;DHT22;9632;51.018;4.284;2023-03-03T12:28:26;7.10;99.90
18998;DHT22;9632;51.018;4.284;2023-03-03T12:34:16;7.10;99.90
18998;DHT22;9632;51.018;4.284;2023-03-03T12:41:56;7.20;99.90
18998;DHT22;9632;51.018;4.284;2023-03-03T12:47:28;7.30;99.90
18998;DHT22;9632;51.018;4.284;2023-03-03T13:01:03;7.60;99.90
18998;DHT22;9632;51.018;4.284;2023-03-03T13:06:28;7.50;99.90
18998;DHT22;9632;51.018;4.284;2023-03-03T13:11:33;7.60;99.90
18998;DHT22;9632;51.018;4.284;2023-03-03T13:22:45;7.70;99.90
18998;DHT22;9632;51.018;4.284;2023-03-03T13:28:01;7.70;99.90
18998;DHT22;9632;51.018;4.284;2023-03-03T13:30:34;7.80;99.90
18998;DHT22;9632;51.018;4.284;2023-03-03T13:33:29;7.80;99.90
18998;DHT22;9632;51.018;4.284;2023-03-03T13:35:58;7.80;99.90
18998;DHT22;9632;51.018;4.284;2023-03-03T13:38:34;7.90;99.90
18998;DHT22;9632;51.018;4.284;2023-03-03T13:43:50;7.90;99.90
18998;DHT22;9632;51.018;4.284;2023-03-03T13:49:18;7.90;99.90
18998;DHT22;9632;51.018;4.284;2023-03-03T14:03:25;8.00;99.90
18998;DHT22;9632;51.018;4.284;2023-03-03T14:06:01;8.00;99.90
18998;DHT22;9632;51.018;4.284;2023-03-03T14:11:28;8.10;99.90
18998;DHT22;9632;51.018;4.284;2023-03-03T14:16:51;8.20;99.90
18998;DHT22;9632;51.018;4.284;2023-03-03T14:19:30;8.20;99.90
18998;DHT22;9632;51.018;4.284;2023-03-03T14:22:25;8.30;99.90
18998;DHT22;9632;51.018;4.284;2023-03-03T14:25:12;8.30;99.90
18998;DHT22;9632;51.018;4.284;2023-03-03T14:28:02;8.50;99.90
18998;DHT22;9632;51.018;4.284;2023-03-03T14:35:41;8.70;99.90
18998;DHT22;9632;51.018;4.284;2023-03-03T14:40:35;8.80;99.90
18998;DHT22;9632;51.018;4.284;2023-03-03T14:43:07;8.90;99.90
18998;DHT22;9632;51.018;4.284;2023-03-03T14:45:43;8.90;99.90
18998;DHT22;9632;51.018;4.284;2023-03-03T14:48:19;8.80;99.90
18998;DHT22;9632;51.018;4.284;2023-03-03T14:50:59;8.80;99.90
18998;DHT22;9632;51.018;4.284;2023-03-03T14:53:44;8.70;99.90
18998;DHT22;9632;51.018;4.284;2023-03-03T14:56:25;8.60;99.90
18998;DHT22;9632;51.018;4.284;2023-03-03T14:58:53;8.60;99.90
18998;DHT22;9632;51.018;4.284;2023-03-03T15:01:33;8.60;99.90
18998;DHT22;9632;51.018;4.284;2023-03-03T15:06:49;8.70;99.90
18998;DHT22;9632;51.018;4.284;2023-03-03T15:11:58;8.90;99.90
18998;DHT22;9632;51.018;4.284;2023-03-03T15:14:45;8.90;99.90
18998;DHT22;9632;51.018;4.284;2023-03-03T15:23:32;9.10;99.90
18998;DHT22;9632;51.018;4.284;2023-03-03T15:39:27;9.10;99.90
18998;DHT22;9632;51.018;4.284;2023-03-03T15:50:14;9.10;99.90
18998;DHT22;9632;51.018;4.284;2023-03-03T15:52:49;9.10;99.90
18998;DHT22;9632;51.018;4.284;2023-03-03T16:06:40;9.00;99.90
18998;DHT22;9632;51.018;4.284;2023-03-03T16:17:44;9.20;99.90
18998;DHT22;9632;51.018;4.284;2023-03-03T16:25:59;9.30;99.90
18998;DHT22;9632;51.018;4.284;2023-03-03T16:31:17;9.20;99.90
18998;DHT22;9632;51.018;4.284;2023-03-03T16:42:29;9.00;99.90
18998;DHT22;9632;51.018;4.284;2023-03-03T16:45:32;9.00;99.90
18998;DHT22;9632;51.018;4.284;2023-03-03T16:48:05;8.90;99.90
18998;DHT22;9632;51.018;4.284;2023-03-03T16:50:47;8.90;99.90
18998;DHT22;9632;51.018;4.284;2023-03-03T16:56:24;9.00;99.90
18998;DHT22;9632;51.018;4.284;2023-03-03T17:05:11;8.90;99.90
18998;DHT22;9632;51.018;4.284;2023-03-03T17:10:36;8.80;99.90
18998;DHT22;9632;51.018;4.284;2023-03-03T17:13:23;8.80;99.90
18998;DHT22;9632;51.018;4.284;2023-03-03T17:16:08;8.80;99.90
18998;DHT22;9632;51.018;4.284;2023-03-03T17:24:35;8.80;99.90
18998;DHT22;9632;51.018;4.284;2023-03-03T17:35:54;8.70;99.90
18998;DHT22;9632;51.018;4.284;2023-03-03T17:41:35;8.70;99.90
18998;DHT22;9632;51.018;4.284;2023-03-03T17:45:15;8.80;99.90
18998;DHT22;9632;51.018;4.284;2023-03-03T17:47:39;8.90;99.90
18998;DHT22;9632;51.018;4.284;2023-03-03T17:50:18;8.80;99.90
18998;DHT22;9632;51.018;4.284;2023-03-03T17:52:54;8.70;99.90
18998;DHT22;9632;51.018;4.284;2023-03-03T18:03:56;8.50;99.90
18998;DHT22;9632;51.018;4.284;2023-03-03T18:26:04;8.20;99.90
18998;DHT22;9632;51.018;4.284;2023-03-03T18:28:49;8.20;99.90
18998;DHT22;9632;51.018;4.284;2023-03-03T18:31:26;8.20;99.90
18998;DHT22;9632;51.018;4.284;2023-03-03T18:34:24;8.20;99.90
18998;DHT22;9632;51.018;4.284;2023-03-03T18:36:56;8.20;99.90
18998;DHT22;9632;51.018;4.284;2023-03-03T18:39:36;8.20;99.90
18998;DHT22;9632;51.018;4.284;2023-03-03T18:44:36;8.20;99.90
18998;DHT22;9632;51.018;4.284;2023-03-03T18:47:02;8.20;99.90
18998;DHT22;9632;51.018;4.284;2023-03-03T18:49:47;8.10;99.90
18998;DHT22;9632;51.018;4.284;2023-03-03T18:52:20;8.10;99.90
18998;DHT22;9632;51.018;4.284;2023-03-03T18:57:26;8.10;99.90
18998;DHT22;9632;51.018;4.284;2023-03-03T19:00:08;8.10;99.90
18998;DHT22;9632;51.018;4.284;2023-03-03T19:02:36;8.10;99.90
18998;DHT22;9632;51.018;4.284;2023-03-03T19:05:27;8.10;99.90
18998;DHT22;9632;51.018;4.284;2023-03-03T19:08:01;8.10;99.90
18998;DHT22;9632;51.018;4.284;2023-03-03T19:10:46;8.10;99.90
18998;DHT22;9632;51.018;4.284;2023-03-03T19:21:19;8.00;99.90
18998;DHT22;9632;51.018;4.284;2023-03-03T19:23:51;8.00;99.90
18998;DHT22;9632;51.018;4.284;2023-03-03T19:38:11;8.00;99.90
18998;DHT22;9632;51.018;4.284;2023-03-03T19:51:30;7.90;99.90
18998;DHT22;9632;51.018;4.284;2023-03-03T19:56:57;7.90;99.90
18998;DHT22;9632;51.018;4.284;2023-03-03T19:59:32;7.90;99.90
18998;DHT22;9632;51.018;4.284;2023-03-03T20:15:27;8.00;99.90
18998;DHT22;9632;51.018;4.284;2023-03-03T20:24:09;7.90;99.90
18998;DHT22;9632;51.018;4.284;2023-03-03T20:32:38;7.80;99.90
18998;DHT22;9632;51.018;4.284;2023-03-03T20:38:21;7.90;99.90
18998;DHT22;9632;51.018;4.284;2023-03-03T20:41:21;7.90;99.90
18998;DHT22;9632;51.018;4.284;2023-03-03T20:47:09;8.00;99.90
18998;DHT22;9632;51.018;4.284;2023-03-03T20:52:24;8.00;99.90
18998;DHT22;9632;51.018;4.284;2023-03-03T20:55:15;7.90;99.90
18998;DHT22;9632;51.018;4.284;2023-03-03T20:58:05;7.90;99.90
18998;DHT22;9632;51.018;4.284;2023-03-03T21:00:39;7.90;99.90
18998;DHT22;9632;51.018;4.284;2023-03-03T21:03:33;7.90;99.90
18998;DHT22;9632;51.018;4.284;2023-03-03T21:06:00;7.90;99.90
18998;DHT22;9632;51.018;4.284;2023-03-03T21:08:41;8.00;99.90
18998;DHT22;9632;51.018;4.284;2023-03-03T21:11:07;7.90;99.90
18998;DHT22;9632;51.018;4.284;2023-03-03T21:13:38;7.90;99.90
18998;DHT22;9632;51.018;4.284;2023-03-03T21:18:38;7.90;99.90
18998;DHT22;9632;51.018;4.284;2023-03-03T21:21:04;7.90;99.90
18998;DHT22;9632;51.018;4.284;2023-03-03T21:23:30;7.90;99.90
18998;DHT22;9632;51.018;4.284;2023-03-03T21:25:56;8.00;99.90
18998;DHT22;9632;51.018;4.284;2023-03-03T21:31:14;7.90;99.90
18998;DHT22;9632;51.018;4.284;2023-03-03T21:33:50;7.90;99.90
18998;DHT22;9632;51.018;4.284;2023-03-03T21:36:22;8.00;99.90
18998;DHT22;9632;51.018;4.284;2023-03-03T21:38:50;8.00;99.90
18998;DHT22;9632;51.018;4.284;2023-03-03T21:41:17;8.00;99.90
18998;DHT22;9632;51.018;4.284;2023-03-03T21:43:49;8.00;99.90
18998;DHT22;9632;51.018;4.284;2023-03-03T21:46:23;8.00;99.90
18998;DHT22;9632;51.018;4.284;2023-03-03T21:48:50;8.00;99.90
18998;DHT22;9632;51.018;4.284;2023-03-03T21:51:16;7.80;99.90
18998;DHT22;9632;51.018;4.284;2023-03-03T21:53:42;7.80;99.90
18998;DHT22;9632;51.018;4.284;2023-03-03T21:56:09;7.90;99.90
18998;DHT22;9632;51.018;4.284;2023-03-03T21:58:35;7.80;99.90
18998;DHT22;9632;51.018;4.284;2023-03-03T22:01:04;7.80;99.90
18998;DHT22;9632;51.018;4.284;2023-03-03T22:03:29;7.70;99.90
18998;DHT22;9632;51.018;4.284;2023-03-03T22:05:55;7.70;99.90
18998;DHT22;9632;51.018;4.284;2023-03-03T22:08:21;7.60;99.90
18998;DHT22;9632;51.018;4.284;2023-03-03T22:10:51;7.60;99.90
18998;DHT22;9632;51.018;4.284;2023-03-03T22:13:24;7.70;99.90
18998;DHT22;9632;51.018;4.284;2023-03-03T22:15:51;7.60;99.90
18998;DHT22;9632;51.018;4.284;2023-03-03T22:18:17;7.60;99.90
18998;DHT22;9632;51.018;4.284;2023-03-03T22:20:44;7.60;99.90
18998;DHT22;9632;51.018;4.284;2023-03-03T22:23:11;7.70;99.90
18998;DHT22;9632;51.018;4.284;2023-03-03T22:25:37;7.60;99.90
18998;DHT22;9632;51.018;4.284;2023-03-03T22:28:03;7.70;99.90
18998;DHT22;9632;51.018;4.284;2023-03-03T22:30:28;7.70;99.90
18998;DHT22;9632;51.018;4.284;2023-03-03T22:32:54;7.70;99.90
18998;DHT22;9632;51.018;4.284;2023-03-03T22:35:20;7.70;99.90
18998;DHT22;9632;51.018;4.284;2023-03-03T22:37:46;7.70;99.90
18998;DHT22;9632;51.018;4.284;2023-03-03T22:40:12;7.70;99.90
18998;DHT22;9632;51.018;4.284;2023-03-03T22:42:38;7.70;99.90
18998;DHT22;9632;51.018;4.284;2023-03-03T22:45:04;7.70;99.90
18998;DHT22;9632;51.018;4.284;2023-03-03T22:47:30;7.80;99.90
18998;DHT22;9632;51.018;4.284;2023-03-03T22:49:57;7.80;99.90
18998;DHT22;9632;51.018;4.284;2023-03-03T22:52:23;7.80;99.90
18998;DHT22;9632;51.018;4.284;2023-03-03T22:54:49;7.80;99.90
18998;DHT22;9632;51.018;4.284;2023-03-03T22:57:14;7.70;99.90
18998;DHT22;9632;51.018;4.284;2023-03-03T22:59:40;7.70;99.90
18998;DHT22;9632;51.018;4.284;2023-03-03T23:02:06;7.70;99.90